Online since October of 2007


Active alerts

Marquette
  Details for Marquette Lakeshore Flood Advisory  +1 additional alert

Bigbaywx more information Bigbaywx


mount mesnard more information Mount Mesnard


visit our other weather sites:

Template documentation
and downloads

And another site


CBI


nearby metar reports

   
KSAW - Sawyer, Michigan
updated: Sep 21 2018 11:45 am
mostly cloudy  
mostly cloudy  
   wind: west 27.6 mph<br />Gust to 27.6 mph
wind: west 27.6 mph
Gust to 27.6 mph
temperature: 60.8°F
dew point: 46.4°F
humidity: 59%
barometer: 29.55 inHg
clouds: mostly cloudy
visibility: 10 mi
cloud details: mostly cloudy 1036 m
KSAW 211545Z 27024G38KT 10SM BKN034 16/08 A2955
KESC - Escanaba, Michigan
updated: Sep 21 2018 11:56 am
  
  
   wind: west 24.2 mph<br />Gust to 24.2 mph
wind: west 24.2 mph
Gust to 24.2 mph
temperature: 64.4°F
dew point: 53.6°F
humidity: 68%
barometer: 29.59 inHg
KESC 211556Z AUTO 26021G26KT 18/12 A2959 RMK AO2 PK WND 26026/1555 SLP038 T01830117
KIMT - Iron Mountain, MI
updated: Sep 21 2018 11:54 am
partly cloudy  
partly cloudy  
   wind: wnw 25.3 mph<br />Gust to 25.3 mph
wind: wnw 25.3 mph
Gust to 25.3 mph
temperature: 60.8°F
dew point: 48.2°F
humidity: 63%
barometer: 29.64 inHg
clouds: partly cloudy
visibility: 10 mi
cloud details: partly cloudy 884 m,
partly cloudy 1250 m
KIMT 211554Z AUTO 29022G36KT 10SM SCT029 SCT041 16/09 A2964 RMK AO2 PK WND 30045/1526 RAB19E29B41E50 SLP035 P0000 T01560094
KGRB - Green Bay, WI
updated: Sep 21 2018 11:53 am
mostly cloudy  
mostly cloudy  
   wind: west 21.9 mph<br />Gust to 21.9 mph
wind: west 21.9 mph
Gust to 21.9 mph
temperature: 62.6°F
dew point: 53.6°F
humidity: 73%
barometer: 29.76 inHg
clouds: mostly cloudy
visibility: 10 mi
cloud details: partly cloudy 853 m,
mostly cloudy 1128 m
KGRB 211553Z 26019G33KT 10SM SCT028 BKN037 17/12 A2976 RMK AO2 PK WND 28041/1519 SLP075 T01720122
KDET - Detroit, MI
updated: Sep 21 2018 11:53 am
few clouds  
few clouds  
   wind: ssw 26.5 mph<br />Gust to 26.5 mph
wind: ssw 26.5 mph
Gust to 26.5 mph
temperature: 84.2°F
heat index: 87.8°F
dew point: 66.2°F
humidity: 55%
barometer: 29.77 inHg
clouds: few clouds
visibility: 10 mi
cloud details: few clouds 3658 m
KDET 211553Z 21023G31KT 10SM FEW120 29/19 A2977 RMK AO2 PK WND 22032/1455 SLP078 T02890194
 

script developed by  Saratoga-weather.org adapted for the template by  Weerstation Leuven

you find our weather info also at:

Weather Underground

midwestern weather network

WeatherlinkIP

Citizen Weather Observer Program (CWOP)

equipment we use:

weather-station
Davis VP2

weather-program
Davis Weatherlink.Com

Davis VP2

Davis Weatherlink.Com